Latest Weather Observations for Maitland Airport

IDN60801

Issued at 10:53 am EST Friday 8 May 2026 (issued every 10 minutes, with the page automatically refreshed every 10 minutes)

About weather observations | Map of weather stations | Latest weather observations for NSW | Other Formats
Station Details ID: 061428 Name: MAITLAND AIRPORT AWS Lat: -32.70 Lon: 151.49 Height: 27.5 m
Data from the previous 72 hours. | See also: Recent months at Maitland Airport
Date/Time
EST
Temp
°C
App
Temp
°C
Dew
Point
°C
Rel
Hum
%
Delta-T
°C
Wind Press
QNH
hPa
Press
MSL
hPa
Rain since
9am
mm
Dir  Spd
km/h
Gust
km/h
Spd
kts
Gust
kts
08/10:30am 15.5 8.8 3.6 45 5.5 NW 28 39 15 21 1019.5 1019.5 0.0
08/10:00am 14.5 7.4 3.6 48 4.9 NW 30 44 16 24 1019.8 1019.8 0.0
08/09:30am 13.5 6.7 3.0 49 4.7 WNW 28 44 15 24 1020.0 1020.0 0.0
08/09:18am 13.1 6.2 2.6 49 4.6 WNW 28 46 15 25 1020.1 1020.1 0.0
08/09:00am 12.8 5.2 2.6 50 4.5 WNW 32 46 17 25 1020.1 1020.1 0.0
08/08:30am 11.8 5.2 2.3 52 4.1 WNW 26 41 14 22 1020.1 1020.1 0.0
08/08:00am 10.7 4.1 2.0 55 3.7 NW 26 37 14 20 1019.9 1019.9 0.0
08/07:30am 9.7 3.1 1.8 58 3.3 NW 26 41 14 22 1019.7 1019.7 0.0
08/07:00am 8.9 3.0 1.8 61 2.9 WNW 22 35 12 19 1020.1 1020.1 0.0
08/06:30am 8.3 2.9 1.5 62 2.8 WNW 19 30 10 16 1020.1 1020.1 0.0
08/06:00am 8.2 2.8 1.1 61 2.9 WNW 19 30 10 16 1020.0 1020.0 0.0
08/05:30am 8.5 3.1 1.0 59 3.0 WNW 19 28 10 15 1019.7 1019.7 0.0
08/05:00am 8.3 3.2 0.8 59 3.0 NW 17 24 9 13 1019.5 1019.5 0.0
08/04:30am 8.4 3.3 0.6 58 3.1 WNW 17 22 9 12 1019.6 1019.6 0.0
08/04:00am 8.0 3.2 0.5 59 3.0 WNW 15 20 8 11 1019.5 1019.5 0.0
08/03:30am 7.9 3.1 0.4 59 3.0 WNW 15 19 8 10 1019.6 1019.6 0.0
08/03:00am 7.9 3.5 0.4 59 3.0 WNW 13 19 7 10 1019.9 1019.9 0.0
08/02:30am 8.1 3.7 0.3 58 3.1 WNW 13 20 7 11 1020.0 1020.0 0.0
08/02:00am 8.4 3.9 -0.1 55 3.3 WNW 13 17 7 9 1020.2 1020.2 0.0
08/01:30am 8.6 4.1 -0.4 53 3.5 WNW 13 20 7 11 1020.2 1020.2 0.0
08/01:00am 9.1 3.4 -0.8 50 3.9 WNW 19 28 10 15 1020.4 1020.4 0.0
08/12:30am 9.8 4.4 -1.0 47 4.2 WNW 17 22 9 12 1020.5 1020.5 0.0
08/12:00am 10.7 5.4 -0.7 45 4.5 WNW 17 26 9 14 1020.5 1020.5 0.0
 
Date/Time
EST
Temp
°C
App
Temp
°C
Dew
Point
°C
Rel
Hum
%
Delta-T
°C
Wind Press
QNH
hPa
Press
MSL
hPa
Rain since
9am
mm
Dir  Spd
km/h
Gust
km/h
Spd
kts
Gust
kts
07/11:30pm 10.4 5.4 -1.0 45 4.5 WNW 15 22 8 12 1020.3 1020.3 0.0
07/11:00pm 10.7 5.3 -1.0 44 4.6 W 17 26 9 14 1020.1 1020.1 0.0
07/10:30pm 10.6 5.6 -1.1 44 4.6 WNW 15 24 8 13 1020.2 1020.2 0.0
07/10:00pm 10.9 5.5 -1.2 43 4.8 WNW 17 22 9 12 1020.4 1020.4 0.0
07/09:30pm 10.2 5.5 -1.5 44 4.6 WNW 13 17 7 9 1020.3 1020.3 0.0
07/09:00pm 10.4 6.4 -1.9 42 4.7 NW 9 13 5 7 1020.0 1020.0 0.0
07/08:30pm 12.1 7.0 -2.1 37 5.6 W 15 24 8 13 1019.8 1019.8 0.0
07/08:00pm 12.7 7.2 -2.3 35 5.9 W 17 30 9 16 1019.5 1019.5 0.0
07/07:30pm 13.1 6.9 -2.8 33 6.2 W 20 37 11 20 1019.3 1019.3 0.0
07/07:00pm 13.5 7.3 -2.8 32 6.4 W 20 39 11 21 1019.0 1019.0 0.0
07/06:30pm 13.8 7.2 -3.0 31 6.6 W 22 35 12 19 1018.5 1018.5 0.0
07/06:00pm 13.9 8.2 -3.4 30 6.7 W 17 26 9 14 1018.0 1018.0 0.0
07/05:30pm 14.4 8.1 -3.9 28 7.1 W 20 30 11 16 1017.3 1017.3 0.0
07/05:00pm 14.9 8.6 -4.4 26 7.4 W 20 28 11 15 1016.8 1016.8 0.0
07/04:30pm 16.0 9.2 -5.1 23 8.1 W 22 37 12 20 1016.4 1016.4 0.0
07/04:00pm 16.7 9.1 -5.7 21 8.5 W 26 48 14 26 1016.0 1016.0 0.0
07/03:57pm 16.7 8.7 -5.7 21 8.5 W 28 48 15 26 1015.8 1015.8 0.0
07/03:30pm 17.1 9.5 -5.4 21 8.6 W 26 44 14 24 1015.4 1015.4 0.0
07/03:00pm 17.6 8.5 -7.7 17 9.3 WSW 33 54 18 29 1014.8 1014.8 0.0
07/02:30pm 18.2 8.7 -7.2 17 9.5 WSW 35 54 19 29 1014.2 1014.2 0.0
07/02:00pm 17.3 9.4 -1.4 28 7.8 WSW 30 46 16 25 1013.9 1013.9 0.0
07/01:30pm 18.2 11.3 6.4 46 5.8 NW 32 50 17 27 1013.5 1013.5 0.0
07/01:00pm 17.8 10.6 6.0 46 5.8 NW 33 52 18 28 1013.5 1013.5 0.0
07/12:30pm 18.6 12.1 6.4 45 6.1 WNW 30 54 16 29 1013.9 1013.9 0.0
07/12:01pm 18.2 12.3 7.3 49 5.5 NW 28 46 15 25 1014.2 1014.2 0.0
07/12:00pm 18.0 11.6 6.8 48 5.6 NW 30 46 16 25 1014.1 1014.1 0.0
07/11:30am 17.4 12.1 6.6 49 5.3 NW 24 37 13 20 1014.7 1014.7 0.0
07/11:00am 17.7 13.4 7.7 52 5.1 NW 20 35 11 19 1015.1 1015.1 0.0
07/10:30am 18.3 13.7 8.0 51 5.3 NW 22 35 12 19 1015.6 1015.6 0.0
07/10:18am 17.6 11.6 7.1 50 5.3 NW 28 46 15 25 1015.7 1015.7 0.0
07/10:00am 17.3 10.9 7.1 51 5.1 WNW 30 43 16 23 1015.7 1015.7 0.0
07/09:30am 16.7 11.5 7.1 53 4.8 NW 24 39 13 21 1015.7 1015.7 0.0
07/09:00am 16.2 11.5 7.9 58 4.2 WNW 22 37 12 20 1015.8 1015.8 0.0
07/08:30am 15.1 9.5 8.6 65 3.3 WNW 28 41 15 22 1015.8 1015.8 0.0
07/08:00am 14.0 8.7 8.6 70 2.7 WNW 26 39 14 21 1015.6 1015.6 0.0
07/07:30am 13.4 8.6 8.9 74 2.3 WNW 24 35 13 19 1015.1 1015.1 0.0
07/07:00am 12.9 8.5 8.8 76 2.1 WNW 22 35 12 19 1014.8 1014.8 0.0
07/06:30am 13.0 8.3 9.1 77 2.0 WNW 24 35 13 19 1014.2 1014.2 0.0
07/06:00am 13.1 9.8 9.4 78 1.9 WNW 17 26 9 14 1014.0 1014.0 0.0
07/05:30am 11.9 9.6 9.1 83 1.4 W 11 17 6 9 1013.7 1013.7 0.0
07/05:00am 12.0 10.1 9.2 83 1.4 W 9 13 5 7 1013.9 1013.9 0.0
07/04:30am 12.5 10.3 9.5 82 1.5 W 11 17 6 9 1013.9 1013.9 0.0
07/04:00am 12.6 10.5 9.8 83 1.4 W 11 17 6 9 1013.9 1013.9 0.0
07/03:30am 13.5 11.1 9.9 79 1.9 WNW 13 17 7 9 1013.9 1013.9 0.0
07/03:00am 13.7 12.1 11.6 87 1.1 NW 11 15 6 8 1014.1 1014.1 0.0
07/02:30am 13.7 11.7 12.6 93 0.6 NW 15 20 8 11 1014.2 1014.2 0.0
07/02:00am 13.8 12.1 13.5 98 0.2 WNW 15 20 8 11 1014.4 1014.4 0.0
07/01:32am 13.5 12.8 13.2 98 0.2 WNW 9 15 5 8 1014.4 1014.4 0.0
07/01:30am 13.5 12.8 13.2 98 0.2 WNW 9 15 5 8 1014.4 1014.4 0.0
07/01:00am 11.6 11.6 11.3 98 0.2 WNW 2 7 1 4 1014.6 1014.6 0.0
07/12:58am 11.6 12.0 11.3 98 0.2 CALM 0 7 0 4 1014.6 1014.6 0.0
07/12:50am 12.7 12.7 12.4 98 0.2 WNW 4 9 2 5 1014.6 1014.6 0.0
07/12:34am 12.6 12.6 12.3 98 0.2 E 4 13 2 7 1014.6 1014.6 0.0
07/12:30am 11.8 12.3 11.5 98 0.2 CALM 0 0 0 0 1014.6 1014.6 0.0
07/12:23am 11.4 11.8 11.1 98 0.2 CALM 0 0 0 0 1014.6 1014.6 0.0
07/12:14am 12.0 12.5 11.7 98 0.2 CALM 0 0 0 0 1014.6 1014.6 0.0
07/12:00am 12.1 12.7 11.8 98 0.2 CALM 0 0 0 0 1014.6 1014.6 0.0
 
Date/Time
EST
Temp
°C
App
Temp
°C
Dew
Point
°C
Rel
Hum
%
Delta-T
°C
Wind Press
QNH
hPa
Press
MSL
hPa
Rain since
9am
mm
Dir  Spd
km/h
Gust
km/h
Spd
kts
Gust
kts
06/11:59pm 12.1 12.7 11.8 98 0.2 CALM 0 0 0 0 1014.7 1014.7 0.0
06/11:51pm 12.5 13.2 12.2 98 0.2 CALM 0 0 0 0 1014.8 1014.8 0.0
06/11:30pm 12.5 13.2 12.2 98 0.2 CALM 0 0 0 0 1014.9 1014.9 0.0
06/11:00pm 12.7 13.5 12.4 98 0.2 CALM 0 0 0 0 1015.1 1015.1 0.0
06/10:32pm 13.0 13.8 12.5 97 0.3 CALM 0 0 0 0 1015.4 1015.4 0.0
06/10:30pm 13.0 13.8 12.5 97 0.3 CALM 0 0 0 0 1015.4 1015.4 0.0
06/10:25pm 13.1 13.9 12.6 97 0.3 CALM 0 0 0 0 1015.5 1015.5 0.0
06/10:20pm 13.4 14.3 12.9 97 0.3 CALM 0 0 0 0 1015.5 1015.5 0.0
06/10:00pm 14.0 15.2 13.7 98 0.2 CALM 0 0 0 0 1015.7 1015.7 0.0
06/09:30pm 13.7 14.7 13.1 96 0.3 CALM 0 0 0 0 1015.9 1015.9 0.0
06/09:00pm 14.1 15.2 13.5 96 0.3 CALM 0 0 0 0 1016.3 1016.3 0.0
06/08:30pm 14.6 15.7 13.5 93 0.6 CALM 0 0 0 0 1016.4 1016.4 0.0
06/08:00pm 15.0 16.1 13.5 91 0.8 CALM 0 0 0 0 1016.6 1016.6 0.0
06/07:30pm 16.3 17.7 14.3 88 1.1 CALM 0 0 0 0 1016.4 1016.4 0.0
06/07:00pm 17.4 17.6 14.3 82 1.8 E 6 7 3 4 1016.4 1016.4 0.0
06/06:30pm 18.6 18.3 14.5 77 2.4 E 9 11 5 6 1016.4 1016.4 0.0
06/06:00pm 19.0 18.4 14.5 75 2.6 E 11 15 6 8 1016.2 1016.2 0.0
06/05:30pm 19.6 19.0 14.6 73 2.9 E 11 15 6 8 1016.0 1016.0 0.0
06/05:00pm 20.1 19.4 14.2 69 3.4 SE 11 17 6 9 1015.9 1015.9 0.0
06/04:30pm 20.9 19.0 14.3 66 3.8 SE 17 20 9 11 1015.7 1015.7 0.0
06/04:00pm 21.5 20.0 14.2 63 4.3 SE 15 20 8 11 1015.7 1015.7 0.0
06/03:30pm 22.8 21.5 13.8 57 5.2 SE 13 19 7 10 1015.8 1015.8 0.0
06/03:00pm 22.8 20.0 13.3 55 5.5 SE 20 26 11 14 1015.9 1015.9 0.0
06/02:30pm 23.3 22.0 11.4 47 6.7 ESE 9 15 5 8 1016.1 1016.1 0.0
06/02:00pm 23.8 22.3 11.8 47 6.8 ESE 11 19 6 10 1016.4 1016.4 0.0
06/01:30pm 23.6 22.1 12.0 48 6.6 ESE 11 19 6 10 1016.9 1016.9 0.0
06/01:00pm 24.0 23.4 11.7 46 6.9 E 6 11 3 6 1017.2 1017.2 0.0
06/12:30pm 23.0 22.3 12.0 50 6.2 NE 7 13 4 7 1017.7 1017.7 0.0
06/12:00pm 22.3 21.2 12.0 52 5.8 SSE 9 13 5 7 1018.4 1018.4 0.0
06/11:30am 21.6 21.3 11.6 53 5.6 S 4 13 2 7 1019.1 1019.1 0.0
06/11:00am 21.2 20.6 11.8 55 5.2 W 6 11 3 6 1019.6 1019.6 0.0
06/10:30am 19.5 18.1 11.0 58 4.6 WNW 9 11 5 6 1020.0 1020.0 0.0
06/10:00am 17.8 16.3 10.4 62 3.9 WNW 9 11 5 6 1020.4 1020.4 0.0
06/09:30am 16.6 15.1 10.5 67 3.2 NW 9 11 5 6 1020.6 1020.6 0.0
06/09:00am 15.6 14.5 10.6 72 2.6 WNW 7 9 4 5 1020.7 1020.7 0.0
06/08:30am 13.7 11.6 9.7 77 2.1 W 11 15 6 8 1020.8 1020.8 0.0
06/08:00am 12.2 11.0 9.6 84 1.3 WNW 6 9 3 5 1020.7 1020.7 0.0
06/07:30am 10.3 9.0 9.1 92 0.6 WNW 6 9 3 5 1020.7 1020.7 0.0
06/07:00am 8.3 7.8 7.9 97 0.2 CALM 0 0 0 0 1020.6 1020.6 0.0
06/06:30am 7.0 5.5 6.6 97 0.2 WNW 4 7 2 4 1020.5 1020.5 0.0
06/06:00am 7.2 6.5 6.8 97 0.2 CALM 0 0 0 0 1020.2 1020.2 0.0
06/05:30am 7.1 6.3 6.4 95 0.3 CALM 0 0 0 0 1020.2 1020.2 0.0
06/05:00am 8.4 6.7 7.5 94 0.4 WNW 6 7 3 4 1020.2 1020.2 0.0
06/04:30am 8.5 6.9 7.9 96 0.3 WNW 6 7 3 4 1020.0 1020.0 0.0
06/04:00am 7.7 7.1 7.3 97 0.2 CALM 0 0 0 0 1019.8 1019.8 0.0
06/03:30am 7.7 7.0 7.1 96 0.3 CALM 0 0 0 0 1019.9 1019.9 0.0
06/03:00am 7.7 6.6 7.0 95 0.3 WNW 2 6 1 3 1020.0 1020.0 0.0
06/02:30am 7.8 7.2 7.2 96 0.3 CALM 0 0 0 0 1020.3 1020.3 0.0
06/02:00am 8.0 7.4 7.4 96 0.3 CALM 0 0 0 0 1020.5 1020.5 0.0
06/01:30am 8.7 8.3 8.1 96 0.3 CALM 0 0 0 0 1020.6 1020.6 0.0
06/01:00am 7.8 6.0 7.2 96 0.3 WNW 6 11 3 6 1020.7 1020.7 0.0
06/12:30am 8.3 7.7 7.5 95 0.4 CALM 0 0 0 0 1020.9 1020.9 0.0
06/12:00am 9.1 8.7 8.3 95 0.4 CALM 0 0 0 0 1020.8 1020.8 0.0
 
Date/Time
EST
Temp
°C
App
Temp
°C
Dew
Point
°C
Rel
Hum
%
Delta-T
°C
Wind Press
QNH
hPa
Press
MSL
hPa
Rain since
9am
mm
Dir  Spd
km/h
Gust
km/h
Spd
kts
Gust
kts
05/11:30pm 9.0 8.6 8.2 95 0.4 CALM 0 0 0 0 1020.7 1020.7 0.0
05/11:00pm 9.6 9.3 8.7 94 0.4 CALM 0 0 0 0 1020.7 1020.7 0.0
05/10:30pm 10.1 9.9 8.9 92 0.6 CALM 0 0 0 0 1020.8 1020.8 0.0
05/10:00pm 10.5 10.2 8.6 88 0.9 CALM 0 0 0 0 1020.8 1020.8 0.0
05/09:30pm 10.6 10.2 8.4 86 1.1 CALM 0 0 0 0 1020.7 1020.7 0.0
05/09:00pm 11.1 10.9 9.0 87 1.0 CALM 0 0 0 0 1020.5 1020.5 0.0
05/08:30pm 11.7 11.5 9.1 84 1.3 CALM 0 0 0 0 1020.2 1020.2 0.0
05/08:00pm 12.2 12.0 8.9 80 1.6 CALM 0 0 0 0 1020.2 1020.2 0.0
05/07:30pm 12.5 12.3 9.0 79 1.8 CALM 0 0 0 0 1020.0 1020.0 0.0
05/07:00pm 13.3 13.0 8.8 74 2.3 CALM 0 0 0 0 1019.7 1019.7 0.0
05/06:30pm 14.6 14.5 9.6 72 2.6 CALM 0 0 0 0 1019.1 1019.1 0.0
05/06:00pm 15.2 15.1 9.6 69 2.9 CALM 0 0 0 0 1018.6 1018.6 0.0
05/05:30pm 16.2 16.0 9.2 63 3.6 CALM 0 0 0 0 1018.3 1018.3 0.0
05/05:00pm 19.2 18.7 7.9 48 5.8 CALM 0 0 0 0 1017.9 1017.9 0.0
05/04:30pm 20.4 18.5 7.4 43 6.7 NW 7 11 4 6 1017.5 1017.5 0.0
05/04:00pm 20.3 17.4 6.6 41 6.9 NW 11 15 6 8 1017.4 1017.4 0.0
05/03:30pm 21.4 18.9 8.3 43 6.9 NNW 11 17 6 9 1017.2 1017.2 0.0
05/03:00pm 21.4 18.6 8.7 44 6.7 NW 13 20 7 11 1017.1 1017.1 0.0
05/02:30pm 21.0 18.4 9.3 47 6.2 NNW 13 19 7 10 1017.0 1017.0 0.0
05/02:00pm 22.2 19.3 9.7 45 6.7 NW 15 22 8 12 1017.2 1017.2 0.0
05/01:30pm 21.4 18.3 9.0 45 6.6 WNW 15 28 8 15 1017.2 1017.2 0.0
05/01:00pm 20.1 16.7 9.1 49 5.8 NW 17 24 9 13 1017.5 1017.5 0.0
05/12:30pm 20.4 17.4 9.3 49 5.9 NW 15 24 8 13 1018.2 1018.2 0.0
05/12:00pm 20.1 17.0 8.8 48 5.9 NW 15 20 8 11 1018.3 1018.3 0.0
05/11:30am 19.6 17.0 9.2 51 5.5 NW 13 20 7 11 1018.8 1018.8 0.0
05/11:00am 19.4 16.5 8.1 48 5.8 W 13 20 7 11 1019.1 1019.1 0.0

Other formats

Comma delimited format used in spreadsheet applications
http://www.bom.gov.au/fwo/IDN60801/IDN60801.94650.axf

JavaScript Object Notation format (JSON) in row-major order
http://www.bom.gov.au/fwo/IDN60801/IDN60801.94650.json

Data quality

Most of these data are generated automatically and are frequently updated. Quality checks on data are not normally performed. It is possible for incorrect values to appear. Refer to information at About Latest Weather Observations and please check the disclaimer before using these data.